createdAt,value
2022-11-28T00:00:16.285Z,52.78
2022-11-28T00:00:38.489Z,52.80
2022-11-28T00:01:01.232Z,52.76
2022-11-28T00:01:25.500Z,52.69
2022-11-28T00:01:49.854Z,52.79
2022-11-28T00:02:13.025Z,52.53
2022-11-28T00:02:34.852Z,52.93
2022-11-28T00:02:56.585Z,53.36
2022-11-28T00:03:18.349Z,53.23
2022-11-28T00:03:41.300Z,53.31
2022-11-28T00:04:04.428Z,53.06
2022-11-28T00:04:26.516Z,52.97
2022-11-28T00:04:50.805Z,52.94
2022-11-28T00:05:13.753Z,53.22
2022-11-28T00:05:36.019Z,53.25
2022-11-28T00:06:02.255Z,53.10
2022-11-28T00:06:24.502Z,53.18
2022-11-28T00:06:49.891Z,53.24
2022-11-28T00:07:12.017Z,53.21
2022-11-28T00:07:33.997Z,53.10
2022-11-28T00:07:56.009Z,53.17
2022-11-28T00:08:18.133Z,53.36
2022-11-28T00:08:45.625Z,53.13
2022-11-28T00:10:09.580Z,53.28
2022-11-28T00:10:51.895Z,53.14
2022-11-28T00:11:15.386Z,53.22
2022-11-28T00:11:40.048Z,53.45
2022-11-28T00:12:01.602Z,53.24
2022-11-28T00:12:24.059Z,53.26
2022-11-28T00:12:45.659Z,53.21
2022-11-28T00:13:08.643Z,53.14
2022-11-28T00:13:30.241Z,53.15
2022-11-28T00:13:51.978Z,52.91
2022-11-28T00:14:14.645Z,53.11
2022-11-28T00:14:37.269Z,53.27
2022-11-28T00:14:58.861Z,53.31
2022-11-28T00:15:20.495Z,53.23
2022-11-28T00:15:42.243Z,52.92
2022-11-28T00:16:07.065Z,53.46
2022-11-28T00:16:29.777Z,53.52
2022-11-28T00:16:51.479Z,53.56
2022-11-28T00:17:14.486Z,53.82
2022-11-28T00:17:37.043Z,53.61
2022-11-28T00:17:58.658Z,53.66
2022-11-28T00:18:20.262Z,53.62
2022-11-28T00:18:42.025Z,53.40
2022-11-28T00:19:05.859Z,53.24
2022-11-28T00:19:27.475Z,53.30
2022-11-28T00:19:49.669Z,53.18
2022-11-28T00:20:11.906Z,52.88
2022-11-28T00:20:34.593Z,52.76
2022-11-28T00:20:59.526Z,53.02
2022-11-28T00:21:22.349Z,52.88
2022-11-28T00:21:44.033Z,53.03
2022-11-28T00:22:06.558Z,53.18
2022-11-28T00:22:29.377Z,53.37
2022-11-28T00:22:52.116Z,53.37
2022-11-28T00:23:13.714Z,53.58
2022-11-28T00:23:36.894Z,53.29
2022-11-28T00:23:59.323Z,53.34
2022-11-28T00:24:20.872Z,53.69
2022-11-28T00:24:43.659Z,53.71
2022-11-28T00:25:06.221Z,53.88
2022-11-28T00:25:27.794Z,53.94
2022-11-28T00:25:57.127Z,53.68
2022-11-28T00:26:22.677Z,53.37
2022-11-28T00:26:44.481Z,53.69
2022-11-28T00:27:06.122Z,53.25
2022-11-28T00:27:27.739Z,53.25
2022-11-28T00:27:49.441Z,53.29
2022-11-28T00:28:11.975Z,53.64
2022-11-28T00:28:33.988Z,53.40
2022-11-28T00:28:56.450Z,53.52
2022-11-28T00:29:19.015Z,53.57
2022-11-28T00:29:40.673Z,53.67
2022-11-28T00:30:02.404Z,53.66
2022-11-28T00:30:24.089Z,53.56
2022-11-28T00:30:45.650Z,53.38
2022-11-28T00:31:12.483Z,53.62
2022-11-28T00:31:36.932Z,53.67
2022-11-28T00:31:59.131Z,53.65
2022-11-28T00:32:23.243Z,53.78
2022-11-28T00:32:44.830Z,54.10
2022-11-28T00:33:06.644Z,54.23
2022-11-28T00:33:28.322Z,54.33
2022-11-28T00:33:50.987Z,54.27
2022-11-28T00:34:14.609Z,54.21
2022-11-28T00:34:36.218Z,54.21
2022-11-28T00:34:57.794Z,54.21
2022-11-28T00:35:20.377Z,54.10
2022-11-28T00:35:41.990Z,53.96
2022-11-28T00:36:05.020Z,53.79
2022-11-28T00:36:26.672Z,53.76
2022-11-28T00:36:49.630Z,53.92
2022-11-28T00:37:11.301Z,53.82
2022-11-28T00:37:32.981Z,53.85
2022-11-28T00:37:54.579Z,53.97
2022-11-28T00:38:17.601Z,53.87
2022-11-28T00:38:39.642Z,53.74
2022-11-28T00:39:01.198Z,53.85
2022-11-28T00:39:23.125Z,53.73
2022-11-28T00:39:45.642Z,53.87
2022-11-28T00:40:08.231Z,53.69
2022-11-28T00:40:29.828Z,53.78
2022-11-28T00:40:58.608Z,53.85
2022-11-28T00:41:22.363Z,53.63
2022-11-28T00:41:45.640Z,54.02
2022-11-28T00:42:07.283Z,53.81
2022-11-28T00:42:28.892Z,54.01
2022-11-28T00:42:50.482Z,54.20
2022-11-28T00:43:13.246Z,54.21
2022-11-28T00:43:34.926Z,54.14
2022-11-28T00:43:57.186Z,54.18
2022-11-28T00:44:19.817Z,54.19
2022-11-28T00:44:41.622Z,54.26
2022-11-28T00:45:04.036Z,54.17
2022-11-28T00:45:25.768Z,54.37
2022-11-28T00:45:47.370Z,54.35
2022-11-28T00:46:11.025Z,54.62
2022-11-28T00:46:32.742Z,54.79
2022-11-28T00:46:54.290Z,54.59
2022-11-28T00:47:16.374Z,54.74
2022-11-28T00:47:40.297Z,54.70
2022-11-28T00:48:01.993Z,54.48
2022-11-28T00:48:24.060Z,54.54
2022-11-28T00:48:46.028Z,54.26
2022-11-28T00:49:08.941Z,54.34
2022-11-28T00:49:30.556Z,54.45
2022-11-28T00:49:52.178Z,54.37
2022-11-28T00:50:13.851Z,54.20
2022-11-28T00:50:36.521Z,54.28
2022-11-28T00:51:06.481Z,54.25
2022-11-28T00:51:30.429Z,54.22
2022-11-28T00:51:53.001Z,54.08
2022-11-28T00:52:14.608Z,54.30
2022-11-28T00:52:36.193Z,54.27
2022-11-28T00:52:57.779Z,54.28
2022-11-28T00:53:19.442Z,54.19
2022-11-28T00:53:43.701Z,54.10
2022-11-28T00:54:06.740Z,54.13
2022-11-28T00:54:28.310Z,54.21
2022-11-28T00:54:49.929Z,54.09
2022-11-28T00:55:12.482Z,53.86
2022-11-28T00:55:34.088Z,54.11
2022-11-28T00:55:55.698Z,54.04
2022-11-28T00:56:20.339Z,54.04
2022-11-28T00:56:42.983Z,54.01
2022-11-28T00:57:04.580Z,53.83
2022-11-28T00:57:26.154Z,54.09
2022-11-28T00:57:47.695Z,53.81
2022-11-28T00:58:09.550Z,54.07
2022-11-28T00:58:32.774Z,54.25
2022-11-28T00:58:54.460Z,54.26
2022-11-28T00:59:16.062Z,54.25
2022-11-28T00:59:38.869Z,54.42
2022-11-28T01:00:00.441Z,54.59
2022-11-28T01:00:22.303Z,54.41
2022-11-28T01:00:43.911Z,54.46
2022-11-28T01:01:10.628Z,54.44
2022-11-28T01:01:35.236Z,54.37
2022-11-28T01:01:56.932Z,54.33
2022-11-28T01:02:18.683Z,54.38
2022-11-28T01:02:41.769Z,54.36
2022-11-28T01:03:04.665Z,54.33
2022-11-28T01:03:26.365Z,54.35
2022-11-28T01:03:49.530Z,54.41
2022-11-28T01:04:15.150Z,54.62
2022-11-28T01:04:36.763Z,54.32
2022-11-28T01:04:58.398Z,54.48
2022-11-28T01:05:20.022Z,54.60
2022-11-28T01:05:43.186Z,54.55
2022-11-28T01:06:06.646Z,54.56
2022-11-28T01:06:31.552Z,54.43
2022-11-28T01:06:53.314Z,54.25
2022-11-28T01:07:15.931Z,54.36
2022-11-28T01:07:42.160Z,54.45
2022-11-28T01:08:03.869Z,54.46
2022-11-28T01:08:25.545Z,54.39
2022-11-28T01:08:48.115Z,54.57
2022-11-28T01:09:13.155Z,54.32
2022-11-28T01:09:34.745Z,54.23
2022-11-28T01:09:57.311Z,54.25
2022-11-28T01:10:19.144Z,54.11
2022-11-28T01:10:42.220Z,54.18
2022-11-28T01:11:04.910Z,54.26
2022-11-28T01:11:28.646Z,54.34
2022-11-28T01:11:52.841Z,54.79
2022-11-28T01:12:14.525Z,54.97
2022-11-28T01:12:36.157Z,54.88
2022-11-28T01:12:58.791Z,54.96
2022-11-28T01:13:20.359Z,54.92
2022-11-28T01:13:41.976Z,54.87
2022-11-28T01:14:03.859Z,54.96
2022-11-28T01:14:27.281Z,54.81
2022-11-28T01:14:49.156Z,54.83
2022-11-28T01:15:12.891Z,54.72
2022-11-28T01:15:34.607Z,54.99
2022-11-28T01:15:56.242Z,54.93
2022-11-28T01:16:18.889Z,55.05
2022-11-28T01:16:40.548Z,55.12
2022-11-28T01:17:02.179Z,55.25
2022-11-28T01:17:23.769Z,55.09
2022-11-28T01:17:47.631Z,54.91
2022-11-28T01:18:09.297Z,54.61
2022-11-28T01:18:30.923Z,54.74
2022-11-28T01:18:52.725Z,54.80
2022-11-28T01:19:14.714Z,54.91
2022-11-28T01:19:37.310Z,54.81
2022-11-28T01:19:58.946Z,55.03
2022-11-28T01:20:20.513Z,55.29
2022-11-28T01:20:42.139Z,55.27
2022-11-28T01:21:05.063Z,55.43
2022-11-28T01:21:27.028Z,55.53
2022-11-28T01:21:48.830Z,55.42
2022-11-28T01:22:44.670Z,55.67
2022-11-28T01:23:06.604Z,55.58
2022-11-28T01:23:28.238Z,55.57
2022-11-28T01:23:50.398Z,55.64
2022-11-28T01:24:13.433Z,55.60
2022-11-28T01:24:35.005Z,55.57
2022-11-28T01:24:56.640Z,55.34
2022-11-28T01:25:18.354Z,55.36
2022-11-28T01:25:40.926Z,55.78
2022-11-28T01:26:03.919Z,55.63
2022-11-28T01:26:28.069Z,55.49
2022-11-28T01:26:50.614Z,55.69
2022-11-28T01:27:12.242Z,55.76
2022-11-28T01:27:33.896Z,55.63
2022-11-28T01:27:55.524Z,55.61
2022-11-28T01:28:17.109Z,55.84
2022-11-28T01:28:39.636Z,55.66
2022-11-28T01:29:01.285Z,55.53
2022-11-28T01:29:22.993Z,55.55
2022-11-28T01:29:44.580Z,55.65
2022-11-28T01:30:09.397Z,55.56
2022-11-28T01:30:31.480Z,55.46
2022-11-28T01:30:53.132Z,55.33
2022-11-28T01:31:17.386Z,55.31
2022-11-28T01:31:41.804Z,55.36
2022-11-28T01:32:03.794Z,55.21
2022-11-28T01:32:25.367Z,55.06
2022-11-28T01:32:48.316Z,54.87
2022-11-28T01:33:09.946Z,54.89
2022-11-28T01:33:32.612Z,55.04
2022-11-28T01:33:55.562Z,55.06
2022-11-28T01:34:18.007Z,54.90
2022-11-28T01:34:39.737Z,54.93
2022-11-28T01:35:02.546Z,54.65
2022-11-28T01:35:24.222Z,54.55
2022-11-28T01:35:54.855Z,54.86
2022-11-28T01:36:18.567Z,54.69
2022-11-28T01:36:40.154Z,55.10
2022-11-28T01:37:01.760Z,54.94
2022-11-28T01:37:23.591Z,55.07
2022-11-28T01:37:46.396Z,55.01
2022-11-28T01:38:08.069Z,55.00
2022-11-28T01:38:29.741Z,54.93
2022-11-28T01:38:52.326Z,55.02
2022-11-28T01:39:15.654Z,54.76
2022-11-28T01:39:37.857Z,54.79
2022-11-28T01:39:59.538Z,54.82
2022-11-28T01:40:24.202Z,54.81
2022-11-28T01:40:46.325Z,54.99
2022-11-28T01:41:09.737Z,54.90
2022-11-28T01:41:31.378Z,54.89
2022-11-28T01:41:52.992Z,54.81
2022-11-28T01:42:17.356Z,55.06
2022-11-28T01:42:39.988Z,55.15
2022-11-28T01:43:01.629Z,55.07
2022-11-28T01:43:24.260Z,55.15
2022-11-28T01:44:00.735Z,54.98
2022-11-28T01:45:00.700Z,54.85
2022-11-28T01:45:25.601Z,54.64
2022-11-28T01:45:47.353Z,54.66
2022-11-28T01:46:09.782Z,54.77
2022-11-28T01:46:33.679Z,54.66
2022-11-28T01:46:55.458Z,54.70
2022-11-28T01:47:21.488Z,54.91
2022-11-28T01:47:45.638Z,55.01
2022-11-28T01:48:13.758Z,55.04
2022-11-28T01:48:41.998Z,54.96
2022-11-28T01:49:09.746Z,55.04
2022-11-28T01:49:36.869Z,54.82
2022-11-28T01:49:58.693Z,54.69
2022-11-28T01:50:22.430Z,54.75
2022-11-28T01:50:49.978Z,54.79
2022-11-28T01:51:12.652Z,54.91
2022-11-28T01:51:35.246Z,54.80
2022-11-28T01:52:01.195Z,54.90
2022-11-28T01:52:23.565Z,54.79
2022-11-28T01:52:50.078Z,54.89
2022-11-28T01:53:14.471Z,54.91
2022-11-28T01:53:40.474Z,54.96
2022-11-28T01:54:02.749Z,55.03
2022-11-28T01:54:26.186Z,55.03
2022-11-28T01:54:53.962Z,54.96
2022-11-28T01:55:20.699Z,54.86
2022-11-28T01:55:50.731Z,55.13
2022-11-28T01:56:18.814Z,55.19
2022-11-28T01:56:45.119Z,55.01
2022-11-28T01:57:11.131Z,55.02
2022-11-28T01:57:33.144Z,54.74
2022-11-28T01:57:56.699Z,54.94
2022-11-28T01:58:18.891Z,54.90
2022-11-28T01:58:43.612Z,54.82
2022-11-28T01:59:09.046Z,54.73
2022-11-28T01:59:36.534Z,54.76
2022-11-28T02:00:02.567Z,54.83
2022-11-28T02:00:34.705Z,54.80
2022-11-28T02:00:57.758Z,54.74
2022-11-28T02:01:24.483Z,54.74
2022-11-28T02:01:46.542Z,54.80
2022-11-28T02:02:14.683Z,54.96
2022-11-28T02:02:41.884Z,55.08
2022-11-28T02:03:10.213Z,54.90
2022-11-28T02:03:39.422Z,54.77
2022-11-28T02:04:03.227Z,54.74
2022-11-28T02:04:28.936Z,54.64
2022-11-28T02:04:51.117Z,54.63
2022-11-28T02:05:13.918Z,54.49
2022-11-28T02:05:36.389Z,54.23
2022-11-28T02:05:59.313Z,54.27
2022-11-28T02:06:23.637Z,54.21
2022-11-28T02:06:45.190Z,54.10
2022-11-28T02:07:06.992Z,54.24
2022-11-28T02:07:28.628Z,54.39
2022-11-28T02:07:52.016Z,54.14
2022-11-28T02:08:13.697Z,54.11
2022-11-28T02:08:35.892Z,54.12
2022-11-28T02:08:57.597Z,54.38
2022-11-28T02:09:19.210Z,54.38
2022-11-28T02:09:41.846Z,54.22
2022-11-28T02:10:07.246Z,54.30
2022-11-28T02:10:36.790Z,54.16
2022-11-28T02:11:18.863Z,54.24
2022-11-28T02:11:57.328Z,54.37
2022-11-28T02:12:34.683Z,54.42
2022-11-28T02:13:14.411Z,54.91
2022-11-28T02:13:44.417Z,54.73
2022-11-28T02:14:15.415Z,54.66
2022-11-28T02:15:00.534Z,54.63
2022-11-28T02:15:38.934Z,54.95
2022-11-28T02:16:20.779Z,54.72
2022-11-28T02:16:58.214Z,54.56
2022-11-28T02:17:31.952Z,54.72
2022-11-28T02:18:06.713Z,54.61
2022-11-28T02:18:50.137Z,54.74
2022-11-28T02:19:36.481Z,54.58
2022-11-28T02:20:51.703Z,54.95
2022-11-28T02:21:24.917Z,55.07
2022-11-28T02:21:58.299Z,54.90
2022-11-28T02:22:27.495Z,54.92
2022-11-28T02:22:59.720Z,54.81
2022-11-28T02:23:26.643Z,54.89
2022-11-28T02:24:22.379Z,54.69
2022-11-28T02:25:03.262Z,54.44
2022-11-28T02:25:52.006Z,54.68
2022-11-28T02:26:40.438Z,54.49
2022-11-28T02:27:17.198Z,54.40
2022-11-28T02:28:08.419Z,54.40
2022-11-28T02:28:57.920Z,54.19
2022-11-28T02:29:57.130Z,54.40
2022-11-28T02:30:20.903Z,54.39
2022-11-28T02:30:54.494Z,54.58
2022-11-28T02:31:30.252Z,54.71
2022-11-28T02:32:21.285Z,54.98
2022-11-28T02:33:08.415Z,55.03
2022-11-28T02:33:33.436Z,54.83
2022-11-28T02:33:59.729Z,54.94
2022-11-28T02:34:30.756Z,55.04
2022-11-28T02:35:00.246Z,55.66
2022-11-28T02:35:27.202Z,55.70
2022-11-28T02:35:59.119Z,55.42
2022-11-28T02:36:32.563Z,55.77
2022-11-28T02:37:01.490Z,55.71
2022-11-28T02:37:30.178Z,55.76
2022-11-28T02:38:04.202Z,55.73
2022-11-28T02:38:40.514Z,55.57
2022-11-28T02:39:13.539Z,55.57
2022-11-28T02:39:44.911Z,55.56
2022-11-28T02:40:15.637Z,55.52
2022-11-28T02:40:43.904Z,55.52
2022-11-28T02:41:16.446Z,55.55
2022-11-28T02:41:43.456Z,55.81
2022-11-28T02:42:14.250Z,55.70
2022-11-28T02:42:48.757Z,55.57
2022-11-28T02:43:20.658Z,55.58
2022-11-28T02:43:51.601Z,55.54
2022-11-28T02:44:17.748Z,55.44
2022-11-28T02:44:45.666Z,55.28
2022-11-28T02:45:11.990Z,55.20
2022-11-28T02:45:41.610Z,55.23
2022-11-28T02:46:11.151Z,55.29
2022-11-28T02:46:41.066Z,55.37
2022-11-28T02:47:05.799Z,55.22
2022-11-28T02:47:34.270Z,55.17
2022-11-28T02:48:03.211Z,55.13
2022-11-28T02:48:29.178Z,54.92
2022-11-28T02:48:56.267Z,54.84
2022-11-28T02:49:23.882Z,54.75
2022-11-28T02:49:51.653Z,54.73
2022-11-28T02:50:19.337Z,54.66
2022-11-28T02:50:49.625Z,54.62
2022-11-28T02:51:16.244Z,54.62
2022-11-28T02:51:41.569Z,54.75
2022-11-28T02:52:10.665Z,54.71
2022-11-28T02:52:36.412Z,54.67
2022-11-28T02:53:06.303Z,54.66
2022-11-28T02:53:31.986Z,54.53
2022-11-28T02:53:55.212Z,54.36
2022-11-28T02:54:18.304Z,54.43
2022-11-28T02:54:43.104Z,54.32
2022-11-28T02:55:06.630Z,54.31
2022-11-28T02:55:28.326Z,54.32
2022-11-28T02:55:51.969Z,54.35
2022-11-28T02:56:14.015Z,54.32
2022-11-28T02:56:36.899Z,54.26
2022-11-28T02:56:58.876Z,54.48
2022-11-28T02:57:20.475Z,54.57
2022-11-28T02:57:47.053Z,54.50
2022-11-28T02:58:10.460Z,54.40
2022-11-28T02:58:32.166Z,54.29
2022-11-28T02:58:54.132Z,54.54
2022-11-28T02:59:31.055Z,54.38
2022-11-28T02:59:55.422Z,54.47
2022-11-28T03:00:26.245Z,54.33
2022-11-28T03:00:50.524Z,54.41
2022-11-28T03:01:17.991Z,54.31
2022-11-28T03:01:40.673Z,54.19
2022-11-28T03:02:03.675Z,54.41
2022-11-28T03:02:30.300Z,54.40
2022-11-28T03:03:08.012Z,54.45
2022-11-28T03:03:53.493Z,54.34
2022-11-28T03:04:24.310Z,54.35
2022-11-28T03:04:55.755Z,54.57
2022-11-28T03:05:26.521Z,54.57
2022-11-28T03:05:57.202Z,54.36
2022-11-28T03:06:32.785Z,54.29
2022-11-28T03:07:01.449Z,54.08
2022-11-28T03:07:38.423Z,54.15
2022-11-28T03:08:06.068Z,54.17
2022-11-28T03:08:40.593Z,54.29
2022-11-28T03:09:20.405Z,54.49
2022-11-28T03:09:56.830Z,54.16
2022-11-28T03:10:28.184Z,54.01
2022-11-28T03:10:58.059Z,54.22
2022-11-28T03:11:29.798Z,54.08
2022-11-28T03:12:04.999Z,54.14
2022-11-28T03:12:39.266Z,53.94
2022-11-28T03:13:11.417Z,54.16
2022-11-28T03:13:40.324Z,54.18
2022-11-28T03:14:09.098Z,54.33
2022-11-28T03:14:45.441Z,54.37
2022-11-28T03:15:10.370Z,54.49
2022-11-28T03:15:41.175Z,54.29
2022-11-28T03:16:12.914Z,54.33
2022-11-28T03:16:41.299Z,54.00
2022-11-28T03:17:14.401Z,54.00
2022-11-28T03:17:52.086Z,53.99
2022-11-28T03:18:21.967Z,54.20
2022-11-28T03:18:52.988Z,54.27
2022-11-28T03:19:19.469Z,54.23
2022-11-28T03:19:45.346Z,54.00
2022-11-28T03:20:22.888Z,53.93
2022-11-28T03:20:50.282Z,53.76
2022-11-28T03:21:18.819Z,53.91
2022-11-28T03:21:46.678Z,53.71
2022-11-28T03:22:13.274Z,53.47
2022-11-28T03:22:42.886Z,53.48
2022-11-28T03:23:15.785Z,53.85
2022-11-28T03:23:43.687Z,53.87
2022-11-28T03:24:11.161Z,54.01
2022-11-28T03:24:37.945Z,54.22
2022-11-28T03:25:07.936Z,54.45
2022-11-28T03:25:36.939Z,54.27
2022-11-28T03:26:01.881Z,54.37
2022-11-28T03:26:30.423Z,54.31
2022-11-28T03:26:56.511Z,53.98
2022-11-28T03:27:22.171Z,54.17
2022-11-28T03:27:46.903Z,54.25
2022-11-28T03:28:15.220Z,54.32
2022-11-28T03:28:43.673Z,54.19
2022-11-28T03:29:12.375Z,54.28
2022-11-28T03:29:40.607Z,54.33
2022-11-28T03:30:08.640Z,54.09
2022-11-28T03:30:36.571Z,54.02
2022-11-28T03:31:03.909Z,53.81
2022-11-28T03:31:33.709Z,53.90
2022-11-28T03:31:59.658Z,54.01
2022-11-28T03:32:25.678Z,54.12
2022-11-28T03:32:51.827Z,54.27
2022-11-28T03:33:16.250Z,54.01
2022-11-28T03:33:42.259Z,53.97
2022-11-28T03:34:08.562Z,53.96
2022-11-28T03:34:34.373Z,53.78
2022-11-28T03:35:02.824Z,53.53
2022-11-28T03:35:29.828Z,53.60
2022-11-28T03:35:56.105Z,53.46
2022-11-28T03:36:21.224Z,53.27
2022-11-28T03:36:48.289Z,53.35
2022-11-28T03:37:17.301Z,53.25
2022-11-28T03:37:44.120Z,53.51
2022-11-28T03:38:11.295Z,53.17
2022-11-28T03:38:38.065Z,53.32
2022-11-28T03:39:04.900Z,53.40
2022-11-28T03:39:31.494Z,53.25
2022-11-28T03:39:59.243Z,53.13
2022-11-28T03:40:26.277Z,53.10
2022-11-28T03:40:53.241Z,52.79
2022-11-28T03:41:20.007Z,53.04
2022-11-28T03:41:47.103Z,53.25
2022-11-28T03:42:11.135Z,53.23
2022-11-28T03:42:37.241Z,53.47
2022-11-28T03:43:04.583Z,53.22
2022-11-28T03:43:35.555Z,52.98
2022-11-28T03:43:59.533Z,53.15
2022-11-28T03:44:26.925Z,52.92
2022-11-28T03:44:56.067Z,53.08
2022-11-28T03:45:22.201Z,52.92
2022-11-28T03:45:47.269Z,52.81
2022-11-28T03:46:13.614Z,52.68
2022-11-28T03:46:39.652Z,52.86
2022-11-28T03:47:04.808Z,52.54
2022-11-28T03:47:30.923Z,52.70
2022-11-28T03:47:57.822Z,52.70
2022-11-28T03:48:24.942Z,52.85
2022-11-28T03:48:49.679Z,52.88
2022-11-28T03:49:15.168Z,52.74
2022-11-28T03:49:40.854Z,52.71
2022-11-28T03:50:07.611Z,52.94
2022-11-28T03:50:34.335Z,52.75
2022-11-28T03:51:01.685Z,52.91
2022-11-28T03:51:29.176Z,52.83
2022-11-28T03:51:56.526Z,52.90
2022-11-28T03:52:25.202Z,52.98
2022-11-28T03:52:51.411Z,53.00
2022-11-28T03:53:20.446Z,53.08
2022-11-28T03:53:50.706Z,52.97
2022-11-28T03:54:17.376Z,52.77
2022-11-28T03:54:47.784Z,52.99
2022-11-28T03:55:14.182Z,52.99
2022-11-28T03:55:43.679Z,53.02
2022-11-28T03:56:11.288Z,53.00
2022-11-28T03:56:41.331Z,52.71
2022-11-28T03:57:09.157Z,52.85
2022-11-28T03:57:34.562Z,52.77
2022-11-28T03:58:05.862Z,52.95
2022-11-28T03:58:33.804Z,52.88
2022-11-28T03:59:00.204Z,53.07
2022-11-28T03:59:26.606Z,52.54
2022-11-28T03:59:52.143Z,52.59
2022-11-28T04:00:14.917Z,52.67
2022-11-28T04:00:44.433Z,52.63
2022-11-28T04:01:11.699Z,52.83
2022-11-28T04:01:43.738Z,52.92
2022-11-28T04:02:15.142Z,52.84
2022-11-28T04:02:40.991Z,52.95
2022-11-28T04:03:17.957Z,52.82
2022-11-28T04:03:46.758Z,53.03
2022-11-28T04:04:17.125Z,53.10
2022-11-28T04:04:45.367Z,53.28
2022-11-28T04:05:18.257Z,53.57
2022-11-28T04:05:46.927Z,53.78
2022-11-28T04:06:18.123Z,53.80
2022-11-28T04:06:53.945Z,53.75
2022-11-28T04:07:23.503Z,54.01
2022-11-28T04:07:48.777Z,54.04
2022-11-28T04:08:17.449Z,54.08
2022-11-28T04:08:44.392Z,54.06
2022-11-28T04:09:14.549Z,54.04
2022-11-28T04:09:43.854Z,54.13
2022-11-28T04:10:15.226Z,53.95
2022-11-28T04:10:42.199Z,53.67
2022-11-28T04:11:09.491Z,53.52
2022-11-28T04:11:37.315Z,53.71
2022-11-28T04:12:07.389Z,53.65
2022-11-28T04:12:38.550Z,53.55
2022-11-28T04:13:05.585Z,53.48
2022-11-28T04:13:32.006Z,53.66
2022-11-28T04:13:58.122Z,53.63
2022-11-28T04:14:25.181Z,53.60
2022-11-28T04:14:51.902Z,53.46
2022-11-28T04:15:23.828Z,53.21
2022-11-28T04:15:54.472Z,53.22
2022-11-28T04:16:22.748Z,52.99
2022-11-28T04:16:53.972Z,53.31
2022-11-28T04:17:19.542Z,53.43
2022-11-28T04:17:51.739Z,53.28
2022-11-28T04:18:21.273Z,53.01
2022-11-28T04:18:52.577Z,53.02
2022-11-28T04:19:19.765Z,53.18
2022-11-28T04:19:44.703Z,53.15
2022-11-28T04:20:13.542Z,53.21
2022-11-28T04:20:41.862Z,53.11
2022-11-28T04:21:11.737Z,53.20
2022-11-28T04:21:39.854Z,53.59
2022-11-28T04:22:07.404Z,53.42
2022-11-28T04:22:32.497Z,53.29
2022-11-28T04:22:59.745Z,53.37
2022-11-28T04:23:22.456Z,53.26
2022-11-28T04:23:47.061Z,53.60
2022-11-28T04:24:15.377Z,53.72
2022-11-28T04:24:41.520Z,53.42
2022-11-28T04:25:08.263Z,53.37
2022-11-28T04:25:34.180Z,53.65
2022-11-28T04:26:02.520Z,53.61
2022-11-28T04:26:29.026Z,53.46
2022-11-28T04:26:57.373Z,53.51
2022-11-28T04:27:23.358Z,53.70
2022-11-28T04:27:50.779Z,53.64
2022-11-28T04:28:16.163Z,53.68
2022-11-28T04:28:39.977Z,53.75
2022-11-28T04:29:06.732Z,53.67
2022-11-28T04:29:34.723Z,53.41
2022-11-28T04:30:00.918Z,53.38
2022-11-28T04:30:22.686Z,53.53
2022-11-28T04:30:48.627Z,53.12
2022-11-28T04:31:10.562Z,53.40
2022-11-28T04:31:33.561Z,53.40
2022-11-28T04:31:58.777Z,53.32
2022-11-28T04:32:23.548Z,53.30
2022-11-28T04:32:50.411Z,53.38
2022-11-28T04:33:14.386Z,53.61
2022-11-28T04:33:42.215Z,53.43
2022-11-28T04:34:07.480Z,53.43
2022-11-28T04:34:30.606Z,53.72
2022-11-28T04:34:56.387Z,53.69
2022-11-28T04:35:27.050Z,53.99
2022-11-28T04:35:52.684Z,53.89
2022-11-28T04:36:18.094Z,53.79
2022-11-28T04:36:44.211Z,53.78
2022-11-28T04:37:09.914Z,53.56
2022-11-28T04:37:36.102Z,53.79
2022-11-28T04:37:59.703Z,53.54
2022-11-28T04:38:24.331Z,53.51
2022-11-28T04:38:56.037Z,53.63
2022-11-28T04:39:21.207Z,53.70
2022-11-28T04:39:47.187Z,53.67
2022-11-28T04:40:12.821Z,53.79
2022-11-28T04:40:40.921Z,53.72
2022-11-28T04:41:06.762Z,53.92
2022-11-28T04:41:35.904Z,54.25
2022-11-28T04:42:06.310Z,54.19
2022-11-28T04:42:35.167Z,54.22
2022-11-28T04:43:02.252Z,54.25
2022-11-28T04:43:28.032Z,54.49
2022-11-28T04:43:54.766Z,54.46
2022-11-28T04:44:24.290Z,54.54
2022-11-28T04:44:51.317Z,54.63
2022-11-28T04:45:16.827Z,54.54
2022-11-28T04:45:46.096Z,54.78
2022-11-28T04:46:13.082Z,54.92
2022-11-28T04:46:41.218Z,54.85
2022-11-28T04:47:04.449Z,54.80
2022-11-28T04:47:27.383Z,54.79
2022-11-28T04:47:49.181Z,54.59
2022-11-28T04:48:11.139Z,54.64
2022-11-28T04:48:34.543Z,54.54
2022-11-28T04:48:58.809Z,54.46
2022-11-28T04:49:20.893Z,54.65
2022-11-28T04:49:42.625Z,54.72
2022-11-28T04:50:05.470Z,54.56
2022-11-28T04:50:31.614Z,54.46
2022-11-28T04:51:03.789Z,54.31
2022-11-28T04:51:30.647Z,54.30
2022-11-28T04:51:59.294Z,54.07
2022-11-28T04:52:30.348Z,54.07
2022-11-28T04:52:56.189Z,54.05
2022-11-28T04:53:24.822Z,54.25
2022-11-28T04:53:54.041Z,54.33
2022-11-28T04:54:22.793Z,54.55
2022-11-28T04:54:55.279Z,54.59
2022-11-28T04:55:27.012Z,54.80
2022-11-28T04:55:55.046Z,54.88
2022-11-28T04:56:22.405Z,54.86
2022-11-28T04:56:50.413Z,54.99
2022-11-28T04:57:16.468Z,55.13
2022-11-28T04:57:40.861Z,55.00
2022-11-28T04:58:08.998Z,54.90
2022-11-28T04:58:35.879Z,54.88
2022-11-28T04:58:58.705Z,54.86
2022-11-28T04:59:22.354Z,54.70
2022-11-28T04:59:46.117Z,54.70
2022-11-28T05:00:12.912Z,54.39
2022-11-28T05:00:37.852Z,54.21
2022-11-28T05:01:01.934Z,54.20
2022-11-28T05:01:27.759Z,54.00
2022-11-28T05:01:50.229Z,54.05
2022-11-28T05:02:15.671Z,53.92
2022-11-28T05:02:39.132Z,53.87
2022-11-28T05:03:01.302Z,53.82
2022-11-28T05:03:27.903Z,54.02
2022-11-28T05:03:50.719Z,53.93
2022-11-28T05:04:15.115Z,53.76
2022-11-28T05:04:37.263Z,53.89
2022-11-28T05:04:59.638Z,54.09
2022-11-28T05:05:25.608Z,54.02
2022-11-28T05:05:49.163Z,53.83
2022-11-28T05:06:10.772Z,53.47
2022-11-28T05:06:35.727Z,53.47
2022-11-28T05:07:02.313Z,53.75
2022-11-28T05:07:24.265Z,53.74
2022-11-28T05:07:46.039Z,53.56
2022-11-28T05:08:08.676Z,53.82
2022-11-28T05:08:30.604Z,53.93
2022-11-28T05:08:52.399Z,54.08
2022-11-28T05:09:15.130Z,53.82
2022-11-28T05:09:36.933Z,53.87
2022-11-28T05:09:58.793Z,53.98
2022-11-28T05:10:21.032Z,53.70
2022-11-28T05:10:43.845Z,53.53
2022-11-28T05:11:05.613Z,53.61
2022-11-28T05:11:27.822Z,53.43
2022-11-28T05:11:49.473Z,53.50
2022-11-28T05:12:12.126Z,53.32
2022-11-28T05:12:34.273Z,53.25
2022-11-28T05:12:55.885Z,53.41
2022-11-28T05:13:17.824Z,53.32
2022-11-28T05:13:39.393Z,53.59
2022-11-28T05:14:01.957Z,53.88
2022-11-28T05:14:23.825Z,53.74
2022-11-28T05:14:45.435Z,54.06
2022-11-28T05:15:08.082Z,53.95
2022-11-28T05:15:30.731Z,53.94
2022-11-28T05:15:52.831Z,53.88
2022-11-28T05:16:15.277Z,53.78
2022-11-28T05:16:36.945Z,53.60
2022-11-28T05:16:59.667Z,53.56
2022-11-28T05:17:21.313Z,53.71
2022-11-28T05:17:42.896Z,53.55
2022-11-28T05:18:04.747Z,53.70
2022-11-28T05:18:27.287Z,53.75
2022-11-28T05:18:49.085Z,53.74
2022-11-28T05:19:11.123Z,53.56
2022-11-28T05:19:34.074Z,53.58
2022-11-28T05:19:56.773Z,53.29
2022-11-28T05:20:18.546Z,53.73
2022-11-28T05:20:40.276Z,53.75
2022-11-28T05:21:01.957Z,53.78
2022-11-28T05:21:23.814Z,53.66
2022-11-28T05:21:46.418Z,53.61
2022-11-28T05:22:08.038Z,53.63
2022-11-28T05:22:29.597Z,53.67
2022-11-28T05:22:51.166Z,53.63
2022-11-28T05:23:13.739Z,53.59
2022-11-28T05:23:36.015Z,53.59
2022-11-28T05:23:57.629Z,53.61
2022-11-28T05:24:19.271Z,53.55
2022-11-28T05:24:41.865Z,53.59
2022-11-28T05:25:03.781Z,53.62
2022-11-28T05:25:25.482Z,53.67
2022-11-28T05:25:47.110Z,53.67
2022-11-28T05:26:10.906Z,53.42
2022-11-28T05:26:32.764Z,53.28
2022-11-28T05:26:54.368Z,53.27
2022-11-28T05:27:16.039Z,53.16
2022-11-28T05:27:38.716Z,53.00
2022-11-28T05:28:00.358Z,52.89
2022-11-28T05:28:21.970Z,52.86
2022-11-28T05:28:44.839Z,52.87
2022-11-28T05:29:08.149Z,52.79
2022-11-28T05:29:30.032Z,52.57
2022-11-28T05:29:53.155Z,52.56
2022-11-28T05:30:15.363Z,52.61
2022-11-28T05:30:37.962Z,52.53
2022-11-28T05:31:00.518Z,52.45
2022-11-28T05:31:22.386Z,52.54
2022-11-28T05:31:44.217Z,52.63
2022-11-28T05:32:06.953Z,52.57
2022-11-28T05:32:29.460Z,52.45
2022-11-28T05:32:51.136Z,52.69
2022-11-28T05:33:13.711Z,53.24
2022-11-28T05:33:35.314Z,53.11